Senshu Maru — JCIR — position and weather

sailwx.info

Track history (hours):
 
Tides and Currents Weather Stations Pressure Air Temp Water Temp Dewpoint Dewpoint Depression Visibility Wind Speed Wind Dir Waves Ship Positions

Oceanographic research ship Senshu Maru (Japan)

Detailed information on ship capabilities available from University of Delaware's Ocean Information Center.

Last reported at 2016-Jul-20 05:33 UTC. Time now 2016-Jul-27 23:01 UTC.
Position N 34°05' E 134°55'.

Length 283 m; beam 44.8 m.

Type: Ship (hazmat cat A). MMSI: 431023000.

Date/timePositionNaut miles runAvg speedWind from/ knotsBaromVisibWave heightAir tempDewpointWater temp
2016-Jul-20 05:33N 34°05' E 134°55'1413.0
2016-Jul-20 04:30N 34°18' E 134°59'1313.8
2016-Jul-20 03:33N 34°30' E 135°05'8 7.6
2016-Jul-20 02:32N 34°37' E 135°01'1312.7
2016-Jul-20 01:32N 34°33' E 134°46'1311.5
2016-Jul-20 00:22N 34°45' E 134°41'5 0.2
2016-Jul-19 04:08N 34°41' E 134°41'6 8.9
2016-Jul-19 03:30N 34°35' E 134°43'1511.7
2016-Jul-19 02:11N 34°37' E 135°01'5 8.4
2016-Jul-19 01:33N 34°35' E 135°06'8 7.9
2016-Jul-19 00:33N 34°27' E 135°05'1312.5
2016-Jul-18 23:33N 34°15' E 134°59'1010.6
2016-Jul-18 22:33N 34°04' E 134°59'10 9.6
2016-Jul-18 21:33N 33°55' E 134°57'1413.8
2016-Jul-18 20:33N 33°41' E 134°56'  
Track history (hours):
 
Tides and Currents Weather Stations Pressure Air Temp Water Temp Dewpoint Dewpoint Depression Visibility Wind Speed Wind Dir Waves Ship Positions

Oceanographic research ship Senshu Maru (Japan)

Detailed information on ship capabilities available from University of Delaware's Ocean Information Center.

Last reported at 2016-Jul-20 05:33 UTC. Time now 2016-Jul-27 23:01 UTC.
Position N 34°05' E 134°55'.

Length 283 m; beam 44.8 m.

Type: Ship (hazmat cat A). MMSI: 431023000.

Date/timePositionNaut miles runAvg speedWind from/ knotsBaromVisibWave heightAir tempDewpointWater temp
2016-Jul-20 05:33N 34°05' E 134°55'1413.0
2016-Jul-20 04:30N 34°18' E 134°59'1313.8
2016-Jul-20 03:33N 34°30' E 135°05'8 7.6
2016-Jul-20 02:32N 34°37' E 135°01'1312.7
2016-Jul-20 01:32N 34°33' E 134°46'1311.5
2016-Jul-20 00:22N 34°45' E 134°41'5 0.2
2016-Jul-19 04:08N 34°41' E 134°41'6 8.9
2016-Jul-19 03:30N 34°35' E 134°43'1511.7
2016-Jul-19 02:11N 34°37' E 135°01'5 8.4
2016-Jul-19 01:33N 34°35' E 135°06'8 7.9
2016-Jul-19 00:33N 34°27' E 135°05'1312.5
2016-Jul-18 23:33N 34°15' E 134°59'1010.6
2016-Jul-18 22:33N 34°04' E 134°59'10 9.6
2016-Jul-18 21:33N 33°55' E 134°57'1413.8
2016-Jul-18 20:33N 33°41' E 134°56'  

Dump ship's entire track history